Time;durP1;ratioP1;P1;durP2;ratioP2;P2;SDS_P1;SDS_P2;PMS_P1;PMS_P2;Temp;Humidity;BMP_temperature;BMP_pressure;BME280_temperature;BME280_humidity;BME280_pressure;Samples;Min_cycle;Max_cycle;Signal;HPM_P1;HPM_P2
2021/03/12 00:00:34;;;;;;;1.93;1.83;;;6.50;99.90;;;;;;4984709;28;20741;-89
2021/03/12 00:03:00;;;;;;;2.83;0.40;;;6.50;99.90;;;;;;5026007;28;20230;-87
2021/03/12 00:05:26;;;;;;;0.23;0.23;;;6.50;99.90;;;;;;5016068;28;20217;-86
2021/03/12 00:07:55;;;;;;;2.73;1.27;;;6.50;99.90;;;;;;4997486;28;20240;-88
2021/03/12 00:10:24;;;;;;;0.53;0.33;;;6.50;99.90;;;;;;5031243;28;20576;-87
2021/03/12 00:12:50;;;;;;;1.83;0.47;;;6.50;99.90;;;;;;5026114;28;20710;-89
2021/03/12 00:15:21;;;;;;;0.43;0.43;;;6.40;99.90;;;;;;5027078;28;20218;-87
2021/03/12 00:17:49;;;;;;;5.90;1.40;;;6.40;99.90;;;;;;5027020;28;20209;-88
2021/03/12 00:20:18;;;;;;;13.43;1.60;;;6.40;99.90;;;;;;5009847;28;20222;-87
2021/03/12 00:22:44;;;;;;;1.80;0.80;;;6.40;99.90;;;;;;5026135;28;20915;-88
2021/03/12 00:25:13;;;;;;;2.43;1.47;;;6.40;99.90;;;;;;4994581;28;20178;-87
2021/03/12 00:27:39;;;;;;;1.23;1.13;;;6.40;99.90;;;;;;5026466;28;20289;-88
2021/03/12 00:30:07;;;;;;;1.70;0.57;;;6.40;99.90;;;;;;5002193;28;20228;-89
2021/03/12 00:32:33;;;;;;;1.53;1.40;;;6.40;99.90;;;;;;5010073;28;20265;-87
2021/03/12 00:34:59;;;;;;;0.37;0.23;;;6.50;99.90;;;;;;4990852;28;20567;-88
2021/03/12 00:37:25;;;;;;;2.00;1.30;;;6.50;99.90;;;;;;4992374;28;20183;-90
2021/03/12 00:39:51;;;;;;;4.07;0.80;;;6.60;99.90;;;;;;5024858;28;20213;-87
2021/03/12 00:42:19;;;;;;;3.17;0.77;;;6.50;99.90;;;;;;5026080;28;20229;-89
2021/03/12 00:44:45;;;;;;;5.77;0.97;;;6.50;99.90;;;;;;5010363;28;20252;-88
2021/03/12 00:47:11;;;;;;;0.40;0.40;;;6.50;99.90;;;;;;5025796;28;21148;-87
2021/03/12 00:49:37;;;;;;;3.77;0.77;;;6.40;99.90;;;;;;5028701;28;20214;-87
2021/03/12 00:52:03;;;;;;;0.80;0.80;;;6.40;99.90;;;;;;5009293;28;20215;-87
2021/03/12 00:54:29;;;;;;;0.30;0.30;;;6.40;99.90;;;;;;5009651;28;20646;-89
2021/03/12 00:56:55;;;;;;;0.97;0.80;;;6.40;99.90;;;;;;5026109;28;20301;-87
2021/03/12 00:59:21;;;;;;;0.57;0.40;;;6.40;99.90;;;;;;5008521;28;20218;-87
2021/03/12 01:01:47;;;;;;;0.40;0.40;;;6.40;99.90;;;;;;4992034;28;20187;-89
2021/03/12 01:04:13;;;;;;;0.83;0.83;;;6.40;99.90;;;;;;5011038;28;20175;-86
2021/03/12 01:06:39;;;;;;;3.50;0.80;;;6.40;99.90;;;;;;5024974;28;20792;-88
2021/03/12 01:09:05;;;;;;;2.47;1.73;;;6.30;99.90;;;;;;5026378;28;20215;-88
2021/03/12 01:11:32;;;;;;;1.53;0.57;;;6.30;99.90;;;;;;4993186;28;20276;-87
2021/03/12 01:13:58;;;;;;;0.73;0.73;;;6.20;99.90;;;;;;5009131;28;20218;-87
2021/03/12 01:16:24;;;;;;;1.03;1.03;;;6.10;99.90;;;;;;5011184;28;20207;-86
2021/03/12 01:18:50;;;;;;;0.40;0.40;;;6.10;99.90;;;;;;4992519;28;20223;-87
2021/03/12 01:21:16;;;;;;;5.43;0.47;;;6.10;99.90;;;;;;5009226;28;20222;-89
2021/03/12 01:23:42;;;;;;;0.30;0.30;;;6.10;99.90;;;;;;5000531;28;20241;-88
2021/03/12 01:26:07;;;;;;;0.53;0.47;;;6.10;99.90;;;;;;4992555;28;20250;-88
2021/03/12 01:28:33;;;;;;;2.00;1.90;;;6.10;99.90;;;;;;4994246;28;20207;-87
2021/03/12 01:30:59;;;;;;;1.43;0.87;;;6.10;99.90;;;;;;4992356;28;20254;-87
2021/03/12 01:33:24;;;;;;;2.17;0.50;;;6.10;99.90;;;;;;4998528;28;20211;-87
2021/03/12 01:35:50;;;;;;;3.70;2.30;;;6.00;99.90;;;;;;4998797;28;20211;-87
2021/03/12 01:38:16;;;;;;;0.50;0.50;;;6.00;99.90;;;;;;5009121;28;20940;-88
2021/03/12 01:40:47;;;;;;;10.00;1.33;;;6.10;99.90;;;;;;5009279;28;20195;-86
2021/03/12 01:43:14;;;;;;;2.53;1.20;;;6.10;99.90;;;;;;5026779;28;20218;-88
2021/03/12 01:45:43;;;;;;;0.40;0.40;;;6.10;99.90;;;;;;5025458;28;20221;-88
2021/03/12 01:48:15;;;;;;;5.00;1.07;;;6.10;99.90;;;;;;5025484;28;20238;-87
2021/03/12 01:50:45;;;;;;;1.23;0.87;;;6.00;99.90;;;;;;5024253;28;20228;-88
2021/03/12 01:53:19;;;;;;;2.37;1.23;;;6.00;99.90;;;;;;5025644;28;20825;-88
2021/03/12 01:55:45;;;;;;;4.47;0.87;;;6.00;99.90;;;;;;5008363;28;20655;-87
2021/03/12 01:58:11;;;;;;;2.50;1.57;;;6.00;99.90;;;;;;5025897;28;20197;-89
2021/03/12 02:00:38;;;;;;;5.20;0.87;;;5.90;99.90;;;;;;5025964;28;20214;-86
2021/03/12 02:03:07;;;;;;;0.60;0.60;;;5.80;99.90;;;;;;5041152;28;20207;-89
2021/03/12 02:05:34;;;;;;;10.57;2.00;;;5.80;99.90;;;;;;5032958;28;20211;-89
2021/03/12 02:08:00;;;;;;;9.83;0.70;;;5.80;99.90;;;;;;5007511;28;20261;-87
2021/03/12 02:10:28;;;;;;;0.33;0.33;;;5.90;99.90;;;;;;5009330;28;20234;-87
2021/03/12 02:13:31;;;;;;;0.10;0.10;;;5.80;99.90;;;;;;5007620;28;20280;-87
2021/03/12 02:16:18;;;;;;;9.97;0.77;;;5.80;99.90;;;;;;5024347;28;20233;-88
2021/03/12 02:18:54;;;;;;;1.03;0.50;;;5.80;99.90;;;;;;5025478;28;20580;-87
2021/03/12 02:21:35;;;;;;;0.20;0.20;;;5.90;99.90;;;;;;5040993;28;20210;-88
2021/03/12 02:24:21;;;;;;;0.30;0.30;;;5.80;99.90;;;;;;5013303;28;20294;-87
2021/03/12 02:26:47;;;;;;;4.37;1.27;;;5.80;99.90;;;;;;5011030;28;20280;-87
2021/03/12 02:29:18;;;;;;;0.40;0.40;;;5.80;99.90;;;;;;5025221;28;21058;-88
2021/03/12 02:31:44;;;;;;;2.27;0.67;;;5.80;99.90;;;;;;5023587;28;20178;-88
2021/03/12 02:34:12;;;;;;;3.07;1.10;;;5.80;99.90;;;;;;4989640;28;20182;-90
2021/03/12 02:36:49;;;;;;;2.77;2.67;;;5.80;99.90;;;;;;5003876;28;20207;-87
2021/03/12 02:39:18;;;;;;;0.77;0.77;;;5.80;99.90;;;;;;5004034;28;20227;-87
2021/03/12 02:41:47;;;;;;;10.50;2.17;;;5.80;99.90;;;;;;5003397;28;20230;-88
2021/03/12 02:44:13;;;;;;;2.70;0.97;;;5.80;99.90;;;;;;5025080;28;20334;-87
2021/03/12 02:46:40;;;;;;;0.43;0.43;;;5.80;99.90;;;;;;5024815;28;20187;-88
2021/03/12 02:49:09;;;;;;;2.10;1.90;;;5.80;99.90;;;;;;5024415;28;20225;-88
2021/03/12 02:51:35;;;;;;;2.10;1.03;;;5.70;99.90;;;;;;5023933;28;20206;-87
2021/03/12 02:54:02;;;;;;;1.60;0.77;;;5.70;99.90;;;;;;4990540;28;20705;-90
2021/03/12 02:56:27;;;;;;;1.43;1.20;;;5.70;99.90;;;;;;5017062;28;20219;-90
2021/03/12 02:58:55;;;;;;;3.60;1.27;;;5.70;99.90;;;;;;4972256;28;20257;-88
2021/03/12 03:01:21;;;;;;;0.87;0.40;;;5.70;99.90;;;;;;5008731;28;20190;-87
2021/03/12 03:03:48;;;;;;;0.20;0.20;;;5.70;99.90;;;;;;5023233;28;20581;-89
2021/03/12 03:06:15;;;;;;;0.73;0.40;;;5.70;99.90;;;;;;4990959;28;20218;-87
2021/03/12 03:08:44;;;;;;;2.20;1.20;;;5.60;99.90;;;;;;5004178;28;20225;-88
2021/03/12 03:11:12;;;;;;;1.00;1.00;;;5.60;99.90;;;;;;5007049;28;20234;-87
2021/03/12 03:13:40;;;;;;;3.00;1.47;;;5.60;99.90;;;;;;5025094;28;20194;-87
2021/03/12 03:16:13;;;;;;;0.30;0.30;;;5.60;99.90;;;;;;4988121;28;20219;-90
2021/03/12 03:18:40;;;;;;;2.60;0.60;;;5.70;99.90;;;;;;5020057;28;20245;-87
2021/03/12 03:21:06;;;;;;;1.50;0.73;;;5.60;99.90;;;;;;5023983;28;20222;-87
2021/03/12 03:23:40;;;;;;;0.93;0.93;;;5.60;99.90;;;;;;5022870;28;20276;-88
2021/03/12 03:26:07;;;;;;;6.67;2.27;;;5.60;99.90;;;;;;5022168;28;20246;-88
2021/03/12 03:28:34;;;;;;;7.70;1.17;;;5.60;99.90;;;;;;5041668;28;20680;-90
2021/03/12 03:31:04;;;;;;;6.83;0.47;;;5.60;99.90;;;;;;4987022;28;20285;-86
2021/03/12 03:33:31;;;;;;;0.10;0.10;;;5.60;99.90;;;;;;4996649;28;20698;-87
2021/03/12 03:35:57;;;;;;;0.90;0.90;;;5.60;99.90;;;;;;5039315;28;20256;-88
2021/03/12 03:38:24;;;;;;;0.70;0.70;;;5.60;99.90;;;;;;5008496;28;20626;-87
2021/03/12 03:40:50;;;;;;;2.53;1.13;;;5.60;99.90;;;;;;5026631;28;20233;-86
2021/03/12 03:43:23;;;;;;;9.40;2.60;;;5.60;99.90;;;;;;5012119;28;20187;-87
2021/03/12 03:45:50;;;;;;;8.33;1.00;;;5.60;99.90;;;;;;5027003;28;20221;-87
2021/03/12 03:48:17;;;;;;;0.80;0.80;;;5.60;99.90;;;;;;4994453;28;20760;-89
2021/03/12 03:50:45;;;;;;;2.47;0.87;;;5.60;99.90;;;;;;5010834;28;20246;-88
2021/03/12 03:53:11;;;;;;;0.50;0.23;;;5.60;99.90;;;;;;5027699;28;20306;-87
2021/03/12 03:55:38;;;;;;;0.37;0.37;;;5.60;99.90;;;;;;5028534;28;20186;-88
2021/03/12 03:58:04;;;;;;;7.13;1.17;;;5.60;99.90;;;;;;5027411;28;20225;-87
2021/03/12 04:00:31;;;;;;;2.97;1.37;;;5.60;99.90;;;;;;5011113;28;20651;-87
2021/03/12 04:02:58;;;;;;;0.10;0.10;;;5.60;99.90;;;;;;5026409;28;20261;-87
2021/03/12 04:05:25;;;;;;;4.33;1.40;;;5.60;99.90;;;;;;5018951;28;20262;-88
2021/03/12 04:07:52;;;;;;;1.90;0.67;;;5.70;99.90;;;;;;4993374;28;20214;-88
2021/03/12 04:10:19;;;;;;;0.70;0.43;;;5.70;99.90;;;;;;5011486;28;20202;-90
2021/03/12 04:12:46;;;;;;;1.47;1.40;;;5.60;99.90;;;;;;5009418;28;20231;-88
2021/03/12 04:15:13;;;;;;;8.40;1.90;;;5.60;99.90;;;;;;5042631;28;20222;-87
2021/03/12 04:17:39;;;;;;;0.63;0.63;;;5.60;99.90;;;;;;5015354;28;20311;-87
2021/03/12 04:20:07;;;;;;;0.20;0.20;;;5.70;99.90;;;;;;5009723;28;20222;-88
2021/03/12 04:22:34;;;;;;;10.90;1.87;;;5.70;99.90;;;;;;5027574;28;20187;-88
2021/03/12 04:25:01;;;;;;;0.40;0.40;;;5.70;99.90;;;;;;5009942;28;20222;-88
2021/03/12 04:27:27;;;;;;;0.70;0.70;;;5.70;99.90;;;;;;5010030;28;20690;-87
2021/03/12 04:29:53;;;;;;;2.33;0.93;;;5.70;99.90;;;;;;5025794;28;20298;-89
2021/03/12 04:32:20;;;;;;;0.97;0.50;;;5.70;99.90;;;;;;5009739;28;20864;-89
2021/03/12 04:34:46;;;;;;;6.23;0.90;;;5.70;99.90;;;;;;5009489;28;20202;-89
2021/03/12 04:37:13;;;;;;;0.57;0.57;;;5.70;99.90;;;;;;5010825;28;20179;-89
2021/03/12 04:39:39;;;;;;;9.63;1.40;;;5.70;99.90;;;;;;4989131;28;20226;-87
2021/03/12 04:42:06;;;;;;;0.50;0.50;;;5.80;99.90;;;;;;5000666;28;20605;-88
2021/03/12 04:44:36;;;;;;;2.90;2.43;;;5.80;99.90;;;;;;5018432;28;20219;-87
2021/03/12 04:47:03;;;;;;;0.67;0.67;;;5.80;99.90;;;;;;4990006;28;20227;-88
2021/03/12 04:49:29;;;;;;;3.40;0.80;;;5.80;99.90;;;;;;4982655;28;20214;-87
2021/03/12 04:51:56;;;;;;;2.50;1.17;;;5.80;99.90;;;;;;5006462;28;20563;-87
2021/03/12 04:54:23;;;;;;;1.23;1.10;;;5.80;99.90;;;;;;5003358;28;20211;-87
2021/03/12 04:56:48;;;;;;;0.90;0.90;;;5.80;99.90;;;;;;5008602;28;20218;-86
2021/03/12 04:59:14;;;;;;;1.40;1.23;;;5.80;99.90;;;;;;5008938;28;20276;-87
2021/03/12 05:01:46;;;;;;;1.13;0.80;;;5.80;99.90;;;;;;5009785;28;20190;-88
2021/03/12 05:04:12;;;;;;;6.77;1.47;;;5.80;99.90;;;;;;5014873;28;20306;-87
2021/03/12 05:06:43;;;;;;;1.80;1.60;;;5.80;99.90;;;;;;4990678;28;20298;-86
2021/03/12 05:09:12;;;;;;;0.67;0.63;;;5.80;99.90;;;;;;4996564;28;20257;-87
2021/03/12 05:11:43;;;;;;;3.90;1.50;;;5.80;99.90;;;;;;5005399;28;20233;-88
2021/03/12 05:14:13;;;;;;;0.73;0.73;;;5.90;99.90;;;;;;4993343;28;20254;-87
2021/03/12 05:16:39;;;;;;;2.30;1.00;;;5.90;99.90;;;;;;5026475;28;20191;-90
2021/03/12 05:19:05;;;;;;;0.80;0.70;;;5.90;99.90;;;;;;4989022;28;20224;-87
2021/03/12 05:21:31;;;;;;;2.60;1.10;;;5.90;99.90;;;;;;5000660;28;20211;-87
2021/03/12 05:23:58;;;;;;;5.13;0.93;;;5.90;99.90;;;;;;5015736;28;20249;-87
2021/03/12 05:26:25;;;;;;;2.30;0.73;;;5.80;99.90;;;;;;5008152;28;20214;-87
2021/03/12 05:28:53;;;;;;;1.00;0.57;;;5.80;99.90;;;;;;5008351;28;20183;-87
2021/03/12 05:31:21;;;;;;;2.10;1.47;;;5.80;99.90;;;;;;5010267;28;20757;-87
2021/03/12 05:33:47;;;;;;;3.30;1.23;;;5.80;99.90;;;;;;5024225;28;20651;-86
2021/03/12 05:36:13;;;;;;;0.57;0.57;;;5.80;99.90;;;;;;5000186;28;20298;-87
2021/03/12 05:38:39;;;;;;;23.77;2.60;;;5.80;99.90;;;;;;4997290;28;20302;-87
2021/03/12 05:41:05;;;;;;;0.50;0.50;;;5.80;99.90;;;;;;4989615;28;20694;-89
2021/03/12 05:43:32;;;;;;;3.30;0.90;;;5.80;99.90;;;;;;5025593;28;20298;-89
2021/03/12 05:46:00;;;;;;;0.43;0.43;;;5.80;99.90;;;;;;5024733;28;20242;-87
2021/03/12 05:48:26;;;;;;;3.50;0.50;;;5.80;99.90;;;;;;5024924;28;20277;-91
2021/03/12 05:50:52;;;;;;;3.63;1.60;;;5.80;99.90;;;;;;5000811;28;20251;-88
2021/03/12 05:53:18;;;;;;;2.30;1.80;;;5.80;99.90;;;;;;4992387;28;20258;-88
2021/03/12 05:55:44;;;;;;;2.87;1.23;;;5.80;99.90;;;;;;5025755;28;20236;-87
2021/03/12 05:58:10;;;;;;;2.73;1.03;;;5.80;99.90;;;;;;5009681;28;20183;-88
2021/03/12 06:00:36;;;;;;;4.97;1.00;;;5.80;99.90;;;;;;5008072;28;20573;-87
2021/03/12 06:03:02;;;;;;;3.30;0.90;;;5.80;99.90;;;;;;5008438;28;20265;-88
2021/03/12 06:05:28;;;;;;;1.00;0.93;;;5.90;99.90;;;;;;5024385;28;20222;-89
2021/03/12 06:07:54;;;;;;;1.80;0.80;;;5.90;99.90;;;;;;5006131;28;20186;-90
2021/03/12 06:10:20;;;;;;;0.67;0.53;;;5.90;99.90;;;;;;4993139;28;20240;-88
2021/03/12 06:12:51;;;;;;;3.30;1.13;;;6.00;99.90;;;;;;4989346;28;20230;-87
2021/03/12 06:15:17;;;;;;;6.90;1.10;;;6.00;99.90;;;;;;5020627;28;20246;-87
2021/03/12 06:17:45;;;;;;;1.60;1.30;;;6.00;99.90;;;;;;5000575;28;20684;-88
2021/03/12 06:20:19;;;;;;;1.57;0.37;;;6.10;99.90;;;;;;4992033;28;20683;-88
2021/03/12 06:22:52;;;;;;;5.10;2.13;;;6.10;99.90;;;;;;5022958;28;20724;-87
2021/03/12 06:25:31;;;;;;;0.50;0.50;;;6.20;99.90;;;;;;5022552;28;20202;-89
2021/03/12 06:28:13;;;;;;;0.60;0.60;;;6.20;99.90;;;;;;5024255;28;20226;-87
2021/03/12 06:30:39;;;;;;;0.50;0.50;;;6.20;99.90;;;;;;5024061;28;20745;-88
2021/03/12 06:33:05;;;;;;;0.93;0.87;;;6.20;99.90;;;;;;5024400;28;20206;-88
2021/03/12 06:35:36;;;;;;;2.20;1.90;;;6.10;99.90;;;;;;5003775;28;20207;-88
2021/03/12 06:38:07;;;;;;;2.43;1.33;;;6.20;99.90;;;;;;4982874;28;20258;-87
2021/03/12 06:40:33;;;;;;;1.60;1.50;;;6.20;99.90;;;;;;5005706;28;20191;-87
2021/03/12 06:42:59;;;;;;;0.73;0.73;;;6.30;99.90;;;;;;5004868;28;20284;-87
2021/03/12 06:45:25;;;;;;;3.93;1.80;;;6.40;99.90;;;;;;5024120;28;20231;-87
2021/03/12 06:47:52;;;;;;;0.60;0.60;;;6.50;99.90;;;;;;4987239;28;20218;-87
2021/03/12 06:50:18;;;;;;;4.70;1.40;;;6.80;99.90;;;;;;5008899;28;20235;-90
2021/03/12 06:52:44;;;;;;;2.07;1.87;;;7.00;99.90;;;;;;5006692;28;20191;-87
2021/03/12 06:55:10;;;;;;;4.17;1.43;;;7.50;99.90;;;;;;5025124;28;20175;-87
2021/03/12 06:57:36;;;;;;;1.27;0.80;;;8.40;99.90;;;;;;5007276;28;20226;-90
2021/03/12 07:00:07;;;;;;;0.97;0.87;;;8.80;99.90;;;;;;5007217;28;20210;-88
2021/03/12 07:02:37;;;;;;;0.57;0.57;;;8.30;99.90;;;;;;5023501;28;20218;-87
2021/03/12 07:05:06;;;;;;;8.80;2.07;;;8.00;99.90;;;;;;5022827;28;20284;-89
2021/03/12 07:07:37;;;;;;;1.57;0.80;;;8.10;99.90;;;;;;5008130;28;20182;-87
2021/03/12 07:10:06;;;;;;;0.70;0.67;;;8.00;99.90;;;;;;5023098;28;20773;-87
2021/03/12 07:12:51;;;;;;;10.60;0.97;;;8.20;99.90;;;;;;5021863;28;21024;-88
2021/03/12 07:15:18;;;;;;;3.07;0.53;;;8.20;99.90;;;;;;5024079;28;20211;-87
2021/03/12 07:17:44;;;;;;;1.90;0.97;;;8.20;99.90;;;;;;5006031;28;20215;-88
2021/03/12 07:20:12;;;;;;;2.57;1.27;;;8.70;99.90;;;;;;5022630;28;20309;-86
2021/03/12 07:22:41;;;;;;;0.23;0.23;;;8.50;99.90;;;;;;5041206;28;20183;-88
2021/03/12 07:25:08;;;;;;;3.17;1.50;;;8.60;99.90;;;;;;5036000;28;20761;-87
2021/03/12 07:27:39;;;;;;;3.63;0.97;;;8.60;99.90;;;;;;5003144;28;20392;-87
2021/03/12 07:30:07;;;;;;;2.57;0.97;;;8.70;99.90;;;;;;5022649;28;20751;-87
2021/03/12 07:32:36;;;;;;;4.30;0.83;;;8.30;99.90;;;;;;5023802;28;20215;-88
2021/03/12 07:35:03;;;;;;;7.00;0.90;;;8.30;99.90;;;;;;5010441;28;20214;-91
2021/03/12 07:37:33;;;;;;;4.03;1.30;;;9.00;99.90;;;;;;5009162;28;20559;-87
2021/03/12 07:40:00;;;;;;;0.83;0.50;;;9.80;99.90;;;;;;5025329;28;20224;-89
2021/03/12 07:42:27;;;;;;;3.13;1.10;;;10.50;99.90;;;;;;5027894;28;20808;-92
2021/03/12 07:44:55;;;;;;;2.50;1.37;;;11.30;99.90;;;;;;5000835;28;20703;-88
2021/03/12 07:47:22;;;;;;;4.23;0.80;;;11.00;99.90;;;;;;4992706;28;20237;-88
2021/03/12 07:49:48;;;;;;;7.77;1.53;;;11.40;99.90;;;;;;5023083;28;20225;-86
2021/03/12 07:52:15;;;;;;;2.77;1.63;;;12.10;99.90;;;;;;5023564;28;20174;-86
2021/03/12 07:54:41;;;;;;;7.93;1.37;;;11.80;99.90;;;;;;5023120;28;20223;-87
2021/03/12 07:57:09;;;;;;;0.97;0.70;;;12.50;99.90;;;;;;5022964;28;21296;-87
2021/03/12 07:59:47;;;;;;;3.83;1.20;;;13.00;99.90;;;;;;5005549;28;20245;-90
2021/03/12 08:02:20;;;;;;;2.67;0.93;;;12.20;99.90;;;;;;5023652;28;20321;-89
2021/03/12 08:04:47;;;;;;;1.93;0.57;;;11.50;99.90;;;;;;5015775;28;20218;-88
2021/03/12 08:07:16;;;;;;;4.23;1.20;;;11.00;99.90;;;;;;5024077;28;20233;-86
2021/03/12 08:09:42;;;;;;;5.90;1.60;;;10.10;99.90;;;;;;5023179;28;20230;-88
2021/03/12 08:12:08;;;;;;;4.87;2.87;;;9.60;99.90;;;;;;5022254;28;20254;-88
2021/03/12 08:14:35;;;;;;;35.87;2.60;;;9.30;99.90;;;;;;5018229;28;20288;-87
2021/03/12 08:17:02;;;;;;;2.63;0.93;;;9.00;99.90;;;;;;5006516;28;20528;-87
2021/03/12 08:19:39;;;;;;;7.30;1.47;;;9.20;99.90;;;;;;5022583;28;20193;-88
2021/03/12 08:22:28;;;;;;;6.70;1.60;;;9.10;99.90;;;;;;5022586;28;20206;-87
2021/03/12 08:24:56;;;;;;;9.00;2.17;;;9.20;99.90;;;;;;5017430;28;20218;-87
2021/03/12 08:27:47;;;;;;;2.23;0.60;;;9.50;99.90;;;;;;5026192;28;20207;-87
2021/03/12 08:30:24;;;;;;;3.93;0.80;;;9.40;99.90;;;;;;5001706;28;20629;-88
2021/03/12 08:32:51;;;;;;;3.57;1.53;;;9.00;99.90;;;;;;5011830;28;20211;-87
2021/03/12 08:35:32;;;;;;;1.90;0.80;;;8.60;99.90;;;;;;4978758;28;20214;-88
2021/03/12 08:37:59;;;;;;;4.50;1.50;;;8.30;99.90;;;;;;5026193;28;21630;-87
2021/03/12 08:40:26;;;;;;;1.13;0.87;;;8.20;99.90;;;;;;5027505;28;20183;-88
2021/03/12 08:43:05;;;;;;;2.23;0.93;;;8.20;99.90;;;;;;5026365;28;20682;-88
2021/03/12 08:45:39;;;;;;;3.40;1.37;;;8.20;99.90;;;;;;4995648;28;20227;-88
2021/03/12 08:48:16;;;;;;;8.37;1.30;;;8.10;99.90;;;;;;5006187;28;20703;-88
2021/03/12 08:50:57;;;;;;;1.53;0.70;;;8.10;99.90;;;;;;5032277;28;20276;-87
2021/03/12 08:53:29;;;;;;;10.30;2.93;;;8.00;99.90;;;;;;5025848;28;20553;-88
2021/03/12 08:55:57;;;;;;;0.83;0.80;;;8.10;99.90;;;;;;5025773;28;20186;-89
2021/03/12 08:58:27;;;;;;;3.60;2.30;;;8.10;99.90;;;;;;5027733;28;20199;-89
2021/03/12 09:00:55;;;;;;;0.37;0.37;;;8.40;99.90;;;;;;5026830;28;20218;-88
2021/03/12 09:03:34;;;;;;;11.53;1.30;;;8.50;99.90;;;;;;5028213;28;20418;-88
2021/03/12 09:06:03;;;;;;;1.80;1.10;;;8.80;99.90;;;;;;5042036;28;20210;-86
2021/03/12 09:08:30;;;;;;;4.87;1.43;;;8.80;99.90;;;;;;5025580;28;20233;-90
2021/03/12 09:10:57;;;;;;;2.27;1.20;;;9.00;99.90;;;;;;5027172;28;20210;-89
2021/03/12 09:13:28;;;;;;;2.97;1.13;;;9.10;99.90;;;;;;5011784;28;20728;-88
2021/03/12 09:15:54;;;;;;;6.23;2.13;;;9.10;99.90;;;;;;5025990;28;20221;-88
2021/03/12 09:18:22;;;;;;;3.70;1.70;;;8.90;99.90;;;;;;5026427;28;20214;-88
2021/03/12 09:20:56;;;;;;;7.57;1.27;;;8.60;99.90;;;;;;5009330;28;20265;-89
2021/03/12 09:23:34;;;;;;;4.40;2.13;;;8.40;99.90;;;;;;5025945;28;20267;-87
2021/03/12 09:26:00;;;;;;;1.23;1.13;;;8.20;99.90;;;;;;5022206;28;20190;-88
2021/03/12 09:28:30;;;;;;;5.27;1.07;;;8.00;99.90;;;;;;5009963;28;20191;-87
2021/03/12 09:30:58;;;;;;;0.77;0.77;;;7.80;99.90;;;;;;5007725;28;20226;-86
2021/03/12 09:33:42;;;;;;;1.30;1.27;;;7.60;99.90;;;;;;5008230;28;20228;-86
2021/03/12 09:36:30;;;;;;;0.40;0.40;;;7.60;99.90;;;;;;5023849;28;20703;-87
2021/03/12 09:39:02;;;;;;;0.30;0.30;;;7.50;99.90;;;;;;5023126;28;20215;-87
2021/03/12 09:41:28;;;;;;;2.20;0.70;;;7.10;99.90;;;;;;5024860;28;20230;-87
2021/03/12 09:44:06;;;;;;;2.13;0.57;;;7.00;99.90;;;;;;5024049;28;20857;-86
2021/03/12 09:46:46;;;;;;;2.93;0.90;;;6.80;99.90;;;;;;5026289;28;20187;-85
2021/03/12 09:49:13;;;;;;;0.63;0.63;;;6.70;99.90;;;;;;5021773;28;20748;-88
2021/03/12 09:51:44;;;;;;;1.50;0.77;;;6.70;99.90;;;;;;5005519;28;20245;-88
2021/03/12 09:54:11;;;;;;;0.30;0.30;;;6.70;99.90;;;;;;5017555;28;20241;-88
2021/03/12 09:56:40;;;;;;;3.33;1.10;;;6.70;99.90;;;;;;5000904;28;20207;-87
2021/03/12 09:59:06;;;;;;;0.53;0.53;;;6.80;99.90;;;;;;5005112;28;20215;-86
2021/03/12 10:01:41;;;;;;;13.47;2.63;;;6.80;99.90;;;;;;4973665;28;20195;-87
2021/03/12 10:04:29;;;;;;;2.00;0.77;;;6.90;99.90;;;;;;5004982;28;20257;-88
2021/03/12 10:07:05;;;;;;;0.53;0.47;;;7.00;99.90;;;;;;5024669;28;20213;-87
2021/03/12 10:09:32;;;;;;;0.77;0.73;;;7.10;99.90;;;;;;5023613;28;20213;-87
2021/03/12 10:12:00;;;;;;;1.87;0.80;;;7.20;99.90;;;;;;5014175;28;20227;-86
2021/03/12 10:14:34;;;;;;;1.23;1.17;;;7.10;99.90;;;;;;5008578;28;20958;-88
2021/03/12 10:17:27;;;;;;;5.63;0.77;;;7.10;99.90;;;;;;5018373;28;20183;-87
2021/03/12 10:19:54;;;;;;;2.03;0.40;;;7.10;99.90;;;;;;5023823;28;20229;-88
2021/03/12 10:22:39;;;;;;;8.70;0.80;;;7.10;99.90;;;;;;5026115;28;20195;-87
2021/03/12 10:25:32;;;;;;;10.50;1.33;;;7.20;99.90;;;;;;5003917;28;20285;-87
2021/03/12 10:28:05;;;;;;;13.47;1.53;;;7.40;99.90;;;;;;5021401;28;20214;-87
2021/03/12 10:30:37;;;;;;;2.10;1.20;;;7.50;99.90;;;;;;5004575;28;20257;-88
2021/03/12 10:33:08;;;;;;;0.73;0.60;;;7.70;99.90;;;;;;5007857;28;20549;-89
2021/03/12 10:35:43;;;;;;;7.37;1.83;;;7.80;99.90;;;;;;5012317;28;20756;-88
2021/03/12 10:38:19;;;;;;;6.67;1.53;;;8.00;99.90;;;;;;5040673;28;20214;-90
2021/03/12 10:40:47;;;;;;;11.43;1.60;;;8.10;99.90;;;;;;5024031;28;20273;-89
2021/03/12 10:43:21;;;;;;;13.73;3.53;;;8.20;99.90;;;;;;5025618;28;20183;-89
2021/03/12 10:45:56;;;;;;;10.53;2.03;;;8.30;99.90;;;;;;4994849;28;20218;-89
2021/03/12 10:48:28;;;;;;;9.40;0.90;;;8.60;99.90;;;;;;5016951;28;21305;-88
2021/03/12 10:50:57;;;;;;;3.27;1.20;;;8.90;99.90;;;;;;4988954;28;20219;-89
2021/03/12 10:53:23;;;;;;;5.40;1.63;;;9.40;99.90;;;;;;5010016;28;20913;-88
2021/03/12 10:55:51;;;;;;;5.53;1.03;;;9.90;99.90;;;;;;5025100;28;20195;-89
2021/03/12 10:58:37;;;;;;;2.53;0.90;;;9.70;99.90;;;;;;5025260;28;20225;-89
2021/03/12 11:01:25;;;;;;;2.33;1.23;;;9.40;99.90;;;;;;5024435;28;20239;-89
2021/03/12 11:03:53;;;;;;;1.37;1.13;;;9.10;99.90;;;;;;5024554;28;20217;-89
2021/03/12 11:06:20;;;;;;;9.00;3.00;;;9.00;99.90;;;;;;5019132;28;20951;-89
2021/03/12 11:08:47;;;;;;;3.57;1.53;;;9.00;99.90;;;;;;5025913;28;20219;-89
2021/03/12 11:11:18;;;;;;;1.53;0.90;;;9.10;99.90;;;;;;4986592;28;20222;-89
2021/03/12 11:13:44;;;;;;;4.83;1.77;;;8.90;99.90;;;;;;5044161;28;20272;-90
2021/03/12 11:16:11;;;;;;;3.63;2.73;;;8.80;99.90;;;;;;5044335;28;20243;-89
2021/03/12 11:18:37;;;;;;;7.13;1.03;;;8.90;99.90;;;;;;4977679;28;20222;-90
2021/03/12 11:21:10;;;;;;;4.10;1.27;;;9.90;99.90;;;;;;5002232;28;20237;-89
2021/03/12 11:23:38;;;;;;;7.70;1.83;;;10.00;99.90;;;;;;5026865;28;20206;-88
2021/03/12 11:26:04;;;;;;;5.87;1.60;;;9.40;99.90;;;;;;5009357;28;21098;-89
2021/03/12 11:28:30;;;;;;;7.93;2.13;;;9.10;99.90;;;;;;5012001;28;20639;-90
2021/03/12 11:30:57;;;;;;;6.43;1.77;;;9.00;99.90;;;;;;5010903;28;20244;-89
2021/03/12 11:33:24;;;;;;;5.30;1.73;;;9.00;99.90;;;;;;5012673;28;20709;-88
2021/03/12 11:35:51;;;;;;;1.20;1.10;;;9.10;99.90;;;;;;5011791;28;20275;-89
2021/03/12 11:38:18;;;;;;;3.83;1.90;;;9.20;99.90;;;;;;5007792;28;21317;-89
2021/03/12 11:40:43;;;;;;;1.40;0.77;;;9.20;99.90;;;;;;5008221;28;20190;-90
2021/03/12 11:43:09;;;;;;;1.77;0.80;;;9.30;99.90;;;;;;5015286;28;20186;-89
2021/03/12 11:45:36;;;;;;;3.93;0.50;;;9.20;99.90;;;;;;4996536;28;20230;-89
2021/03/12 11:48:03;;;;;;;4.17;1.17;;;9.10;99.90;;;;;;5002751;28;20252;-90
2021/03/12 11:50:31;;;;;;;1.90;1.20;;;9.00;99.90;;;;;;5030218;28;20233;-89
2021/03/12 11:52:56;;;;;;;3.40;1.90;;;9.40;99.90;;;;;;5046568;28;20189;-89
2021/03/12 11:55:23;;;;;;;9.30;1.57;;;9.70;99.90;;;;;;5030505;28;20194;-89
2021/03/12 11:57:49;;;;;;;4.67;0.97;;;9.40;99.90;;;;;;5013553;28;20229;-88
2021/03/12 12:00:16;;;;;;;4.60;1.37;;;9.50;99.90;;;;;;5005640;28;20227;-88
2021/03/12 12:02:44;;;;;;;1.63;0.80;;;9.80;99.90;;;;;;5003170;28;20213;-89
2021/03/12 12:05:11;;;;;;;4.60;2.33;;;9.90;99.90;;;;;;5031500;28;20253;-89
2021/03/12 12:07:38;;;;;;;0.97;0.87;;;9.90;99.90;;;;;;5033271;28;20201;-91
2021/03/12 12:10:06;;;;;;;4.17;2.00;;;10.20;99.90;;;;;;5030809;28;20217;-90
2021/03/12 12:12:32;;;;;;;1.30;0.83;;;10.60;99.90;;;;;;5014978;28;20233;-89
2021/03/12 12:14:58;;;;;;;5.40;1.23;;;10.30;99.90;;;;;;4998022;28;20205;-88
2021/03/12 12:17:24;;;;;;;8.00;1.50;;;9.90;99.90;;;;;;4995692;28;20215;-88
2021/03/12 12:19:50;;;;;;;5.00;1.07;;;9.80;99.90;;;;;;5020347;28;20205;-88
2021/03/12 12:22:16;;;;;;;1.63;1.03;;;9.60;99.90;;;;;;5034211;28;20190;-88
2021/03/12 12:24:43;;;;;;;5.73;0.90;;;9.40;99.90;;;;;;5037986;28;20750;-90
2021/03/12 12:27:10;;;;;;;2.63;0.70;;;9.40;99.90;;;;;;5020164;28;20268;-88
2021/03/12 12:29:36;;;;;;;2.90;1.07;;;9.40;99.90;;;;;;5012916;28;20241;-88
2021/03/12 12:32:02;;;;;;;7.07;1.00;;;9.50;99.90;;;;;;5020084;28;20229;-89
2021/03/12 12:34:29;;;;;;;3.63;2.50;;;9.50;99.90;;;;;;5041298;28;20177;-88
2021/03/12 12:36:55;;;;;;;10.43;1.03;;;9.50;99.90;;;;;;5040659;28;20202;-89
2021/03/12 12:39:22;;;;;;;10.43;1.83;;;9.50;99.90;;;;;;5038206;28;20310;-88
2021/03/12 12:41:48;;;;;;;3.70;2.10;;;9.70;99.90;;;;;;5037744;28;20704;-89
2021/03/12 12:44:16;;;;;;;4.20;1.63;;;9.90;99.90;;;;;;5038702;28;20220;-88
2021/03/12 12:46:42;;;;;;;2.10;1.27;;;10.00;99.90;;;;;;5038319;28;20186;-90
2021/03/12 12:49:10;;;;;;;2.23;1.40;;;10.10;99.90;;;;;;5040008;28;20260;-89
2021/03/12 12:51:37;;;;;;;4.30;0.83;;;10.00;99.90;;;;;;5035640;28;20234;-90
2021/03/12 12:54:03;;;;;;;0.50;0.40;;;9.90;99.90;;;;;;5038298;28;20210;-89
2021/03/12 12:56:30;;;;;;;2.50;1.00;;;9.80;99.90;;;;;;5037032;28;20675;-89
2021/03/12 12:58:57;;;;;;;6.37;1.33;;;9.60;99.90;;;;;;5025805;28;20194;-91
2021/03/12 13:01:24;;;;;;;7.00;1.63;;;9.80;99.90;;;;;;5040021;28;20186;-89
2021/03/12 13:03:50;;;;;;;2.10;1.37;;;9.90;99.90;;;;;;5038571;28;20301;-89